createdAt,value
2017-08-11T00:00:03.533Z,57.6
2017-08-11T00:01:04.175Z,57.8
2017-08-11T00:02:04.816Z,57.9
2017-08-11T00:03:05.458Z,57.8
2017-08-11T00:04:06.099Z,58.1
2017-08-11T00:05:06.990Z,57.9
2017-08-11T00:06:07.630Z,57.8
2017-08-11T00:07:08.269Z,57.7
2017-08-11T00:08:08.912Z,57.7
2017-08-11T00:09:09.552Z,57.7
2017-08-11T00:10:10.198Z,57.7
2017-08-11T00:11:10.838Z,57.8
2017-08-11T00:12:11.536Z,57.7
2017-08-11T00:13:12.178Z,57.7
2017-08-11T00:14:12.819Z,57.6
2017-08-11T00:15:13.465Z,57.8
2017-08-11T00:16:14.104Z,57.9
2017-08-11T00:17:14.744Z,57.7
2017-08-11T00:18:15.387Z,57.8
2017-08-11T00:19:16.034Z,57.7
2017-08-11T00:20:16.823Z,57.6
2017-08-11T00:21:17.466Z,57.6
2017-08-11T00:22:18.108Z,57.5
2017-08-11T00:23:18.752Z,57.7
2017-08-11T00:24:19.393Z,57.9
2017-08-11T00:25:20.033Z,57.8
2017-08-11T00:26:20.674Z,58.0
2017-08-11T00:27:21.324Z,57.8
2017-08-11T00:28:21.958Z,57.8
2017-08-11T00:29:22.598Z,57.8
2017-08-11T00:30:23.239Z,57.8
2017-08-11T00:31:23.880Z,57.7
2017-08-11T00:32:24.523Z,57.7
2017-08-11T00:33:25.165Z,57.9
2017-08-11T00:34:25.810Z,57.7
2017-08-11T00:35:26.602Z,57.8
2017-08-11T00:36:27.241Z,57.7
2017-08-11T00:37:27.880Z,57.9
2017-08-11T00:38:28.521Z,57.6
2017-08-11T00:39:29.163Z,57.7
2017-08-11T00:40:29.804Z,57.8
2017-08-11T00:41:30.445Z,57.7
2017-08-11T00:42:31.088Z,57.8
2017-08-11T00:43:31.734Z,57.9
2017-08-11T00:44:32.389Z,57.8
2017-08-11T00:45:33.022Z,57.7
2017-08-11T00:46:33.670Z,57.9
2017-08-11T00:47:34.312Z,57.9
2017-08-11T00:48:34.956Z,57.8
2017-08-11T00:49:35.595Z,57.7
2017-08-11T00:50:36.337Z,57.8
2017-08-11T00:51:36.978Z,57.8
2017-08-11T00:52:37.618Z,57.8
2017-08-11T00:53:38.259Z,57.6
2017-08-11T00:54:38.901Z,58.0
2017-08-11T00:55:39.542Z,57.5
2017-08-11T00:56:40.183Z,57.6
2017-08-11T00:57:40.824Z,57.9
2017-08-11T00:58:41.467Z,57.9
2017-08-11T00:59:42.109Z,57.9
2017-08-11T01:00:42.753Z,58.0
2017-08-11T01:01:43.394Z,57.8
2017-08-11T01:02:44.035Z,58.0
2017-08-11T01:03:44.676Z,57.8
2017-08-11T01:04:45.317Z,57.9
2017-08-11T01:05:46.109Z,57.9
2017-08-11T01:06:46.752Z,57.9
2017-08-11T01:07:47.391Z,58.0
2017-08-11T01:08:48.034Z,57.5
2017-08-11T01:09:48.674Z,57.5
2017-08-11T01:10:49.318Z,57.5
2017-08-11T01:11:49.965Z,58.0
2017-08-11T01:12:50.608Z,57.8
2017-08-11T01:13:51.251Z,57.5
2017-08-11T01:14:51.893Z,57.9
2017-08-11T01:15:52.534Z,57.9
2017-08-11T01:16:53.176Z,57.9
2017-08-11T01:17:53.818Z,57.8
2017-08-11T01:18:54.456Z,58.0
2017-08-11T01:19:55.097Z,57.5
2017-08-11T01:20:55.888Z,57.6
2017-08-11T01:21:56.527Z,57.9
2017-08-11T01:22:57.170Z,58.0
2017-08-11T01:23:57.812Z,58.0
2017-08-11T01:24:58.453Z,57.9
2017-08-11T01:25:59.094Z,57.9
2017-08-11T01:26:59.734Z,58.0
2017-08-11T01:28:00.374Z,57.9
2017-08-11T01:29:01.015Z,57.6
2017-08-11T01:30:01.657Z,57.9
2017-08-11T01:31:02.299Z,58.1
2017-08-11T01:32:02.941Z,58.0
2017-08-11T01:33:03.581Z,57.9
2017-08-11T01:34:04.222Z,58.0
2017-08-11T01:35:04.864Z,57.6
2017-08-11T01:36:05.605Z,57.5
2017-08-11T01:37:06.246Z,57.8
2017-08-11T01:38:06.887Z,58.1
2017-08-11T01:39:07.528Z,58.0
2017-08-11T01:40:08.170Z,57.7
2017-08-11T01:41:08.811Z,57.8
2017-08-11T01:42:09.451Z,57.7
2017-08-11T01:43:10.094Z,58.0
2017-08-11T01:44:10.739Z,57.7
2017-08-11T01:45:11.380Z,57.7
2017-08-11T01:46:12.020Z,58.0
2017-08-11T01:47:12.662Z,57.6
2017-08-11T01:48:13.302Z,57.9
2017-08-11T01:49:13.943Z,58.1
2017-08-11T01:50:14.585Z,57.7
2017-08-11T01:51:15.327Z,57.8
2017-08-11T01:52:16.011Z,57.7
2017-08-11T01:53:16.652Z,58.0
2017-08-11T01:54:17.291Z,57.9
2017-08-11T01:55:17.933Z,57.9
2017-08-11T01:56:18.574Z,57.7
2017-08-11T01:57:19.217Z,57.7
2017-08-11T01:58:19.858Z,57.7
2017-08-11T01:59:20.499Z,57.9
2017-08-11T02:00:21.138Z,57.6
2017-08-11T02:01:21.777Z,58.1
2017-08-11T02:02:22.419Z,58.1
2017-08-11T02:03:23.061Z,57.6
2017-08-11T02:04:23.702Z,57.8
2017-08-11T02:05:24.344Z,57.9
2017-08-11T02:06:25.085Z,58.0
2017-08-11T02:07:25.726Z,57.9
2017-08-11T02:08:26.368Z,58.0
2017-08-11T02:09:27.010Z,58.1
2017-08-11T02:10:27.651Z,58.1
2017-08-11T02:11:28.291Z,57.9
2017-08-11T02:12:28.933Z,58.1
2017-08-11T02:13:29.575Z,58.0
2017-08-11T02:14:30.215Z,58.1
2017-08-11T02:15:30.855Z,58.0
2017-08-11T02:16:31.495Z,57.9
2017-08-11T02:17:32.137Z,58.1
2017-08-11T02:18:32.776Z,58.0
2017-08-11T02:19:33.419Z,58.1
2017-08-11T02:20:34.060Z,58.1
2017-08-11T02:21:34.952Z,58.0
2017-08-11T02:22:35.594Z,58.1
2017-08-11T02:23:36.235Z,57.9
2017-08-11T02:24:36.877Z,57.9
2017-08-11T02:25:37.519Z,58.0
2017-08-11T02:26:38.160Z,58.1
2017-08-11T02:27:38.802Z,58.1
2017-08-11T02:28:39.444Z,58.1
2017-08-11T02:29:40.096Z,58.0
2017-08-11T02:30:40.724Z,58.1
2017-08-11T02:31:41.363Z,58.1
2017-08-11T02:32:42.004Z,58.0
2017-08-11T02:33:42.645Z,58.2
2017-08-11T02:34:43.287Z,58.0
2017-08-11T02:35:43.929Z,58.1
2017-08-11T02:36:44.821Z,57.8
2017-08-11T02:37:45.462Z,57.9
2017-08-11T02:38:46.102Z,58.1
2017-08-11T02:39:46.766Z,58.1
2017-08-11T02:40:47.385Z,57.9
2017-08-11T02:41:48.026Z,58.2
2017-08-11T02:42:48.669Z,58.0
2017-08-11T02:43:49.324Z,58.1
2017-08-11T02:44:49.968Z,58.0
2017-08-11T02:45:50.601Z,58.2
2017-08-11T02:46:51.243Z,58.6
2017-08-11T02:47:51.883Z,58.3
2017-08-11T02:48:52.527Z,58.1
2017-08-11T02:49:53.168Z,58.6
2017-08-11T02:50:53.808Z,58.6
2017-08-11T02:51:55.358Z,58.3
2017-08-11T02:52:56.000Z,58.3
2017-08-11T02:53:56.648Z,58.6
2017-08-11T02:54:57.289Z,58.6
2017-08-11T02:55:57.931Z,58.2
2017-08-11T02:56:58.573Z,58.6
2017-08-11T02:57:59.214Z,57.9
2017-08-11T02:58:59.856Z,58.6
2017-08-11T03:00:00.497Z,58.6
2017-08-11T03:01:01.138Z,58.7
2017-08-11T03:02:01.779Z,58.6
2017-08-11T03:03:02.423Z,58.6
2017-08-11T03:04:03.063Z,58.6
2017-08-11T03:05:03.703Z,58.6
2017-08-11T03:06:04.346Z,58.6
2017-08-11T03:07:05.239Z,58.5
2017-08-11T03:08:05.879Z,58.6
2017-08-11T03:09:06.519Z,58.6
2017-08-11T03:10:07.159Z,58.6
2017-08-11T03:11:07.802Z,58.5
2017-08-11T03:12:08.560Z,58.5
2017-08-11T03:13:09.267Z,58.5
2017-08-11T03:14:09.903Z,58.6
2017-08-11T03:15:10.545Z,58.6
2017-08-11T03:16:11.184Z,58.6
2017-08-11T03:17:11.826Z,58.4
2017-08-11T03:18:12.466Z,58.5
2017-08-11T03:19:13.105Z,58.5
2017-08-11T03:20:13.745Z,58.4
2017-08-11T03:21:14.388Z,58.5
2017-08-11T03:22:15.177Z,58.6
2017-08-11T03:23:15.818Z,58.5
2017-08-11T03:24:16.462Z,58.6
2017-08-11T03:25:17.101Z,58.5
2017-08-11T03:26:17.741Z,58.6
2017-08-11T03:27:18.381Z,58.5
2017-08-11T03:28:19.021Z,58.6
2017-08-11T03:29:19.662Z,58.5
2017-08-11T03:30:20.305Z,58.4
2017-08-11T03:31:20.945Z,58.5
2017-08-11T03:32:21.588Z,58.5
2017-08-11T03:33:22.229Z,58.6
2017-08-11T03:34:22.872Z,58.6
2017-08-11T03:35:23.514Z,58.5
2017-08-11T03:36:24.158Z,58.5
2017-08-11T03:37:24.896Z,58.5
2017-08-11T03:38:25.539Z,58.5
2017-08-11T03:39:26.180Z,58.5
2017-08-11T03:40:26.822Z,58.4
2017-08-11T03:41:27.464Z,58.4
2017-08-11T03:42:28.111Z,58.5
2017-08-11T03:43:28.752Z,58.4
2017-08-11T03:44:29.394Z,58.3
2017-08-11T03:45:30.035Z,58.5
2017-08-11T03:46:30.677Z,58.5
2017-08-11T03:47:31.317Z,58.5
2017-08-11T03:48:31.959Z,58.5
2017-08-11T03:49:32.600Z,58.5
2017-08-11T03:50:33.240Z,58.4
2017-08-11T03:51:33.882Z,58.5
2017-08-11T03:52:34.671Z,58.5
2017-08-11T03:53:35.312Z,58.4
2017-08-11T03:54:35.954Z,58.4
2017-08-11T03:55:36.596Z,58.5
2017-08-11T03:56:37.237Z,58.5
2017-08-11T03:57:37.877Z,58.4
2017-08-11T03:58:38.518Z,58.4
2017-08-11T03:59:39.158Z,58.5
2017-08-11T04:00:39.798Z,58.4
2017-08-11T04:01:40.441Z,58.4
2017-08-11T04:02:41.086Z,58.4
2017-08-11T04:03:41.727Z,58.5
2017-08-11T04:04:42.367Z,58.5
2017-08-11T04:05:43.010Z,58.4
2017-08-11T04:06:43.651Z,58.4
2017-08-11T04:07:44.541Z,58.5
2017-08-11T04:08:45.181Z,58.3
2017-08-11T04:09:45.821Z,58.1
2017-08-11T04:10:46.463Z,58.1
2017-08-11T04:11:47.103Z,58.0
2017-08-11T04:12:47.745Z,58.4
2017-08-11T04:13:48.387Z,58.3
2017-08-11T04:14:49.027Z,58.3
2017-08-11T04:15:49.667Z,58.2
2017-08-11T04:16:50.309Z,58.4
2017-08-11T04:17:50.949Z,58.1
2017-08-11T04:18:51.589Z,58.1
2017-08-11T04:19:52.230Z,58.6
2017-08-11T04:20:52.872Z,58.3
2017-08-11T04:21:53.516Z,58.3
2017-08-11T04:22:54.409Z,58.3
2017-08-11T04:23:55.050Z,58.1
2017-08-11T04:24:55.691Z,58.2
2017-08-11T04:25:56.332Z,58.3
2017-08-11T04:26:56.973Z,58.3
2017-08-11T04:27:57.614Z,58.2
2017-08-11T04:28:58.257Z,58.4
2017-08-11T04:29:58.904Z,58.3
2017-08-11T04:30:59.542Z,58.3
2017-08-11T04:32:00.181Z,58.2
2017-08-11T04:33:00.822Z,58.3
2017-08-11T04:34:01.462Z,58.3
2017-08-11T04:35:02.106Z,58.2
2017-08-11T04:36:02.744Z,58.2
2017-08-11T04:37:03.384Z,58.3
2017-08-11T04:38:04.129Z,58.2
2017-08-11T04:39:04.768Z,58.3
2017-08-11T04:40:05.409Z,58.2
2017-08-11T04:41:06.050Z,58.4
2017-08-11T04:42:06.692Z,58.2
2017-08-11T04:43:07.333Z,58.3
2017-08-11T04:44:07.979Z,58.5
2017-08-11T04:45:08.617Z,58.3
2017-08-11T04:46:09.259Z,58.2
2017-08-11T04:47:09.901Z,58.2
2017-08-11T04:48:10.544Z,58.2
2017-08-11T04:49:11.185Z,58.2
2017-08-11T04:50:11.825Z,58.1
2017-08-11T04:51:12.466Z,58.6
2017-08-11T04:52:13.186Z,58.3
2017-08-11T04:53:13.975Z,58.1
2017-08-11T04:54:14.610Z,58.2
2017-08-11T04:55:15.251Z,58.2
2017-08-11T04:56:15.892Z,58.3
2017-08-11T04:57:16.534Z,58.3
2017-08-11T04:58:17.177Z,58.1
2017-08-11T04:59:17.821Z,58.6
2017-08-11T05:00:18.461Z,58.2
2017-08-11T05:01:19.103Z,58.5
2017-08-11T05:02:19.745Z,58.7
2017-08-11T05:03:20.388Z,58.4
2017-08-11T05:04:21.030Z,58.3
2017-08-11T05:05:21.673Z,58.4
2017-08-11T05:06:22.314Z,58.2
2017-08-11T05:07:22.953Z,58.3
2017-08-11T05:08:23.743Z,58.2
2017-08-11T05:09:24.386Z,58.7
2017-08-11T05:10:25.026Z,58.6
2017-08-11T05:11:25.669Z,58.6
2017-08-11T05:12:26.309Z,58.7
2017-08-11T05:13:26.951Z,58.7
2017-08-11T05:14:27.593Z,58.7
2017-08-11T05:15:28.234Z,58.6
2017-08-11T05:16:28.875Z,58.7
2017-08-11T05:17:29.517Z,58.7
2017-08-11T05:18:30.156Z,58.7
2017-08-11T05:19:30.796Z,58.3
2017-08-11T05:20:31.438Z,58.7
2017-08-11T05:21:32.078Z,58.6
2017-08-11T05:22:32.721Z,58.6
2017-08-11T05:23:33.614Z,58.3
2017-08-11T05:24:34.255Z,58.6
2017-08-11T05:25:34.895Z,58.6
2017-08-11T05:26:35.535Z,58.3
2017-08-11T05:27:36.179Z,58.6
2017-08-11T05:28:36.820Z,58.6
2017-08-11T05:29:37.563Z,58.6
2017-08-11T05:30:38.204Z,58.6
2017-08-11T05:31:38.844Z,58.7
2017-08-11T05:32:39.484Z,58.8
2017-08-11T05:33:40.125Z,58.5
2017-08-11T05:34:40.766Z,58.5
2017-08-11T05:35:41.407Z,58.6
2017-08-11T05:36:42.049Z,58.4
2017-08-11T05:37:42.691Z,58.6
2017-08-11T05:38:43.333Z,58.6
2017-08-11T05:39:43.976Z,58.6
2017-08-11T05:40:44.617Z,58.6
2017-08-11T05:41:45.257Z,58.6
2017-08-11T05:42:45.898Z,58.6
2017-08-11T05:43:46.541Z,58.6
2017-08-11T05:44:47.180Z,58.6
2017-08-11T05:45:47.969Z,58.6
2017-08-11T05:46:48.610Z,58.6
2017-08-11T05:47:49.252Z,58.6
2017-08-11T05:48:50.595Z,58.6
2017-08-11T05:49:51.255Z,58.6
2017-08-11T05:50:52.025Z,58.6
2017-08-11T05:51:52.665Z,58.4
2017-08-11T05:52:53.308Z,58.6
2017-08-11T05:53:53.949Z,58.5
2017-08-11T05:54:54.590Z,58.7
2017-08-11T05:55:55.232Z,58.5
2017-08-11T05:56:55.874Z,58.7
2017-08-11T05:57:56.516Z,58.6
2017-08-11T05:58:57.359Z,58.6
2017-08-11T05:59:58.001Z,58.9
2017-08-11T06:00:58.648Z,58.6
2017-08-11T06:01:59.291Z,58.6
2017-08-11T06:02:59.932Z,58.4
2017-08-11T06:04:00.574Z,58.6
2017-08-11T06:05:01.215Z,58.6
2017-08-11T06:06:01.858Z,58.7
2017-08-11T06:07:02.500Z,58.7
2017-08-11T06:08:03.142Z,58.7
2017-08-11T06:09:03.781Z,58.6
2017-08-11T06:10:04.420Z,58.6
2017-08-11T06:11:05.061Z,58.6
2017-08-11T06:12:05.715Z,58.7
2017-08-11T06:13:06.355Z,58.6
2017-08-11T06:14:07.246Z,58.6
2017-08-11T06:15:07.887Z,58.6
2017-08-11T06:16:08.528Z,58.6
2017-08-11T06:17:09.171Z,58.9
2017-08-11T06:18:09.813Z,59.0
2017-08-11T06:19:10.455Z,58.6
2017-08-11T06:20:11.097Z,58.7
2017-08-11T06:21:11.739Z,58.7
2017-08-11T06:22:12.379Z,58.6
2017-08-11T06:23:13.270Z,58.6
2017-08-11T06:24:14.012Z,58.3
2017-08-11T06:25:14.654Z,59.0
2017-08-11T06:26:15.293Z,58.5
2017-08-11T06:27:15.934Z,58.8
2017-08-11T06:28:16.576Z,58.6
2017-08-11T06:29:17.369Z,58.6
2017-08-11T06:30:18.011Z,58.8
2017-08-11T06:31:19.006Z,59.0
2017-08-11T06:32:19.843Z,58.7
2017-08-11T06:33:20.449Z,58.7
2017-08-11T06:34:21.092Z,58.8
2017-08-11T06:35:21.735Z,58.9
2017-08-11T06:36:22.379Z,58.9
2017-08-11T06:37:23.019Z,58.9
2017-08-11T06:38:23.661Z,58.9
2017-08-11T06:39:24.303Z,58.9
2017-08-11T06:40:24.945Z,59.6
2017-08-11T06:41:25.587Z,59.4
2017-08-11T06:42:26.230Z,59.4
2017-08-11T06:43:26.873Z,59.6
2017-08-11T06:44:27.519Z,59.3
2017-08-11T06:45:28.160Z,59.2
2017-08-11T06:46:28.803Z,59.9
2017-08-11T06:47:29.545Z,59.7
2017-08-11T06:48:30.488Z,59.7
2017-08-11T06:49:31.128Z,59.7
2017-08-11T06:50:31.871Z,59.9
2017-08-11T06:51:32.515Z,59.6
2017-08-11T06:52:33.157Z,60.1
2017-08-11T06:53:33.801Z,60.1
2017-08-11T06:54:34.446Z,60.1
2017-08-11T06:55:35.097Z,60.8
2017-08-11T06:56:35.739Z,60.2
2017-08-11T06:57:36.383Z,60.3
2017-08-11T06:58:37.226Z,60.7
2017-08-11T06:59:37.868Z,60.8
2017-08-11T07:00:38.510Z,60.7
2017-08-11T07:01:39.152Z,61.1
2017-08-11T07:02:39.795Z,61.0
2017-08-11T07:03:40.435Z,61.0
2017-08-11T07:04:41.078Z,60.5
2017-08-11T07:05:41.722Z,61.0
2017-08-11T07:06:42.367Z,60.7
2017-08-11T07:07:43.010Z,61.1
2017-08-11T07:08:43.654Z,61.0
2017-08-11T07:09:44.298Z,61.1
2017-08-11T07:10:44.943Z,60.7
2017-08-11T07:11:45.584Z,61.1
2017-08-11T07:12:46.229Z,61.1
2017-08-11T07:13:47.125Z,60.7
2017-08-11T07:14:47.765Z,61.2
2017-08-11T07:15:48.408Z,60.8
2017-08-11T07:16:49.050Z,61.4
2017-08-11T07:17:49.691Z,60.8
2017-08-11T07:18:50.332Z,60.4
2017-08-11T07:19:50.976Z,61.0
2017-08-11T07:20:51.617Z,60.4
2017-08-11T07:21:52.261Z,61.5
2017-08-11T07:22:52.905Z,60.6
2017-08-11T07:23:53.648Z,60.5
2017-08-11T07:24:54.290Z,61.4
2017-08-11T07:25:54.931Z,60.5
2017-08-11T07:26:55.572Z,60.7
2017-08-11T07:27:56.218Z,61.0
2017-08-11T07:28:57.313Z,61.0
2017-08-11T07:29:58.049Z,60.5
2017-08-11T07:30:58.690Z,60.7
2017-08-11T07:31:59.580Z,61.0
2017-08-11T07:33:00.222Z,61.0
2017-08-11T07:34:01.114Z,61.4
2017-08-11T07:35:01.756Z,60.7
2017-08-11T07:36:02.397Z,60.4
2017-08-11T07:37:03.037Z,61.3
2017-08-11T07:38:03.680Z,60.6
2017-08-11T07:39:04.322Z,61.2
2017-08-11T07:40:04.963Z,61.7
2017-08-11T07:41:05.603Z,61.4
2017-08-11T07:42:06.246Z,61.2
2017-08-11T07:43:06.888Z,61.1
2017-08-11T07:44:07.530Z,61.2
2017-08-11T07:45:08.419Z,61.2
2017-08-11T07:46:09.061Z,61.3
2017-08-11T07:47:09.703Z,61.3
2017-08-11T07:48:10.345Z,61.1
2017-08-11T07:49:10.987Z,60.9
2017-08-11T07:50:11.626Z,61.7
2017-08-11T07:51:12.271Z,61.5
2017-08-11T07:52:12.948Z,61.5
2017-08-11T07:53:13.639Z,61.1
2017-08-11T07:54:14.282Z,61.5
2017-08-11T07:55:14.922Z,60.6
2017-08-11T07:56:15.566Z,60.9
2017-08-11T07:57:16.205Z,60.6
2017-08-11T07:58:17.098Z,61.3
2017-08-11T07:59:17.738Z,60.5
2017-08-11T08:00:18.379Z,61.1
2017-08-11T08:01:19.022Z,60.7
2017-08-11T08:02:19.664Z,60.3
2017-08-11T08:03:20.308Z,60.5
2017-08-11T08:04:20.946Z,60.5
2017-08-11T08:05:21.588Z,61.0
2017-08-11T08:06:22.246Z,60.4
2017-08-11T08:07:22.871Z,61.4
2017-08-11T08:08:23.511Z,61.1
2017-08-11T08:09:24.152Z,60.5
2017-08-11T08:10:24.792Z,61.1
2017-08-11T08:11:25.433Z,60.4
2017-08-11T08:12:26.074Z,60.8
2017-08-11T08:13:26.817Z,61.2
2017-08-11T08:14:27.459Z,60.8
2017-08-11T08:15:28.098Z,61.0
2017-08-11T08:16:28.740Z,61.2
2017-08-11T08:17:29.382Z,60.8
2017-08-11T08:18:30.025Z,61.2
2017-08-11T08:19:30.676Z,60.8
2017-08-11T08:20:31.316Z,61.0
2017-08-11T08:21:31.956Z,61.0
2017-08-11T08:22:32.598Z,60.9
2017-08-11T08:23:33.491Z,60.7
2017-08-11T08:24:34.131Z,60.8
2017-08-11T08:25:34.772Z,60.9
2017-08-11T08:26:35.514Z,60.9
2017-08-11T08:27:36.160Z,60.8
2017-08-11T08:28:36.803Z,60.7
2017-08-11T08:29:37.444Z,60.9
2017-08-11T08:30:38.086Z,61.0
2017-08-11T08:31:38.728Z,61.2
2017-08-11T08:32:39.467Z,61.2
2017-08-11T08:33:40.107Z,60.9
2017-08-11T08:34:40.749Z,60.8
2017-08-11T08:35:41.391Z,60.7
2017-08-11T08:36:42.289Z,60.9
2017-08-11T08:37:42.924Z,60.8
2017-08-11T08:38:43.565Z,61.3
2017-08-11T08:39:44.207Z,60.9
2017-08-11T08:40:44.847Z,61.0
2017-08-11T08:41:45.489Z,61.0
2017-08-11T08:42:46.131Z,60.9
2017-08-11T08:43:46.774Z,60.9
2017-08-11T08:44:47.416Z,61.0
2017-08-11T08:45:48.058Z,60.8
2017-08-11T08:46:48.699Z,60.9
2017-08-11T08:47:49.340Z,61.0
2017-08-11T08:48:49.980Z,61.2
2017-08-11T08:49:50.622Z,60.7
2017-08-11T08:50:51.364Z,61.0
2017-08-11T08:51:52.007Z,61.0
2017-08-11T08:52:52.649Z,60.5
2017-08-11T08:53:53.291Z,60.6
2017-08-11T08:54:53.931Z,60.9
2017-08-11T08:55:54.571Z,60.6
2017-08-11T08:56:55.211Z,60.8
2017-08-11T08:57:55.853Z,61.1
2017-08-11T08:58:56.745Z,60.7
2017-08-11T08:59:57.386Z,60.8
2017-08-11T09:00:58.026Z,60.7
2017-08-11T09:01:58.666Z,60.6
2017-08-11T09:02:59.306Z,60.9
2017-08-11T09:03:59.954Z,60.5
2017-08-11T09:05:00.593Z,60.6
2017-08-11T09:06:01.236Z,60.6
2017-08-11T09:07:01.878Z,60.6
2017-08-11T09:08:02.520Z,60.9
2017-08-11T09:09:03.162Z,60.9
2017-08-11T09:10:03.803Z,61.0
2017-08-11T09:11:04.443Z,61.0
2017-08-11T09:12:05.084Z,60.9
2017-08-11T09:13:05.724Z,60.7
2017-08-11T09:14:06.617Z,60.5
2017-08-11T09:15:07.258Z,60.8
2017-08-11T09:16:07.903Z,60.8
2017-08-11T09:17:08.541Z,60.8
2017-08-11T09:18:09.187Z,60.9
2017-08-11T09:19:09.823Z,60.9
2017-08-11T09:20:10.464Z,61.0
2017-08-11T09:21:11.104Z,60.6
2017-08-11T09:22:11.748Z,60.8
2017-08-11T09:23:12.389Z,60.9
2017-08-11T09:24:13.233Z,60.8
2017-08-11T09:25:13.874Z,61.0
2017-08-11T09:26:14.515Z,61.1
2017-08-11T09:27:15.157Z,60.9
2017-08-11T09:28:15.949Z,60.6
2017-08-11T09:29:16.689Z,60.7
2017-08-11T09:30:17.330Z,60.5
2017-08-11T09:31:17.973Z,60.9
2017-08-11T09:32:19.124Z,60.7
2017-08-11T09:33:19.764Z,60.5
2017-08-11T09:34:21.012Z,60.8
2017-08-11T09:35:21.656Z,60.9
2017-08-11T09:36:22.297Z,60.7
2017-08-11T09:37:22.938Z,60.7
2017-08-11T09:38:23.580Z,60.7
2017-08-11T09:39:24.221Z,60.8
2017-08-11T09:40:24.862Z,60.9
2017-08-11T09:41:25.503Z,60.5
2017-08-11T09:42:26.143Z,60.5
2017-08-11T09:43:26.785Z,60.6
2017-08-11T09:44:27.426Z,60.8
2017-08-11T09:45:28.069Z,60.6
2017-08-11T09:46:28.708Z,60.7
2017-08-11T09:47:29.350Z,60.9
2017-08-11T09:48:29.993Z,61.0
2017-08-11T09:49:30.786Z,60.6
2017-08-11T09:50:31.429Z,61.0
2017-08-11T09:51:32.070Z,60.9
2017-08-11T09:52:32.714Z,60.9
2017-08-11T09:53:33.356Z,60.6
2017-08-11T09:54:33.999Z,60.9
2017-08-11T09:55:34.640Z,60.7
2017-08-11T09:56:35.280Z,60.6
2017-08-11T09:57:35.920Z,60.9
2017-08-11T09:58:36.810Z,61.2
2017-08-11T09:59:37.451Z,60.6
2017-08-11T10:00:38.091Z,60.8
2017-08-11T10:01:38.731Z,60.6
2017-08-11T10:02:39.372Z,60.9
2017-08-11T10:03:40.014Z,61.0
2017-08-11T10:04:40.655Z,60.7
2017-08-11T10:05:41.296Z,60.5
2017-08-11T10:06:41.940Z,61.1
2017-08-11T10:07:42.583Z,60.8
2017-08-11T10:08:43.225Z,60.9
2017-08-11T10:09:43.866Z,60.9
2017-08-11T10:10:44.506Z,61.2
2017-08-11T10:11:45.146Z,60.9
2017-08-11T10:12:45.789Z,60.7
2017-08-11T10:13:46.679Z,60.9
2017-08-11T10:14:47.320Z,60.9
2017-08-11T10:15:47.963Z,60.9
2017-08-11T10:16:48.603Z,60.9
2017-08-11T10:17:49.244Z,60.9
2017-08-11T10:18:49.886Z,60.7
2017-08-11T10:19:50.533Z,60.8
2017-08-11T10:20:51.174Z,61.0
2017-08-11T10:21:51.815Z,60.9
2017-08-11T10:22:52.460Z,60.9
2017-08-11T10:23:53.349Z,60.7
2017-08-11T10:24:53.991Z,61.2
2017-08-11T10:25:54.835Z,60.8
2017-08-11T10:26:55.573Z,61.1
2017-08-11T10:27:56.213Z,61.2
2017-08-11T10:28:56.852Z,61.2
2017-08-11T10:29:57.494Z,60.8
2017-08-11T10:30:58.136Z,61.2
2017-08-11T10:31:58.779Z,61.2
2017-08-11T10:32:59.421Z,60.7
2017-08-11T10:34:00.063Z,60.6
2017-08-11T10:35:00.705Z,60.8
2017-08-11T10:36:01.345Z,60.8
2017-08-11T10:37:01.988Z,60.8
2017-08-11T10:38:02.626Z,60.8
2017-08-11T10:39:03.267Z,61.2
2017-08-11T10:40:03.906Z,60.9
2017-08-11T10:41:04.548Z,60.9
2017-08-11T10:42:05.340Z,61.0
2017-08-11T10:43:05.984Z,60.7
2017-08-11T10:44:06.622Z,60.6
2017-08-11T10:45:07.263Z,60.6
2017-08-11T10:46:07.903Z,61.2
2017-08-11T10:47:08.544Z,60.6
2017-08-11T10:48:09.203Z,60.9
2017-08-11T10:49:09.824Z,60.9
2017-08-11T10:50:10.465Z,61.2
2017-08-11T10:51:11.108Z,60.8
2017-08-11T10:52:11.835Z,60.8
2017-08-11T10:53:12.475Z,60.9
2017-08-11T10:54:13.116Z,61.0
2017-08-11T10:55:13.756Z,60.6
2017-08-11T10:56:14.398Z,61.1
2017-08-11T10:57:15.137Z,60.8
2017-08-11T10:58:16.878Z,60.9
2017-08-11T10:59:17.520Z,60.9
2017-08-11T11:00:18.161Z,61.1
2017-08-11T11:01:18.803Z,61.6
2017-08-11T11:02:19.444Z,61.2
2017-08-11T11:03:20.083Z,61.3
2017-08-11T11:04:20.725Z,61.3
2017-08-11T11:05:21.366Z,61.3
2017-08-11T11:06:22.008Z,61.2
2017-08-11T11:07:22.651Z,61.3
2017-08-11T11:08:23.292Z,61.7
2017-08-11T11:09:23.935Z,61.3
2017-08-11T11:10:24.577Z,61.8
2017-08-11T11:11:25.218Z,61.7
2017-08-11T11:12:25.858Z,61.7
2017-08-11T11:13:26.598Z,61.7
2017-08-11T11:14:27.239Z,61.8
2017-08-11T11:15:27.881Z,61.5
2017-08-11T11:16:28.523Z,61.4
2017-08-11T11:17:29.165Z,61.5
2017-08-11T11:18:29.806Z,61.6
2017-08-11T11:19:30.446Z,61.3
2017-08-11T11:20:31.086Z,61.4
2017-08-11T11:21:31.928Z,61.4
2017-08-11T11:22:32.569Z,61.6
2017-08-11T11:23:33.911Z,61.5
2017-08-11T11:24:34.553Z,61.5
2017-08-11T11:25:35.193Z,61.7
2017-08-11T11:26:35.834Z,61.5
2017-08-11T11:27:36.477Z,61.7
2017-08-11T11:28:37.421Z,61.5
2017-08-11T11:29:38.062Z,61.3
2017-08-11T11:30:38.703Z,61.8
2017-08-11T11:31:39.344Z,61.4
2017-08-11T11:32:39.984Z,61.5
2017-08-11T11:33:40.626Z,61.3
2017-08-11T11:34:41.267Z,61.5
2017-08-11T11:35:41.910Z,61.9
2017-08-11T11:36:42.551Z,61.7
2017-08-11T11:37:43.192Z,61.4
2017-08-11T11:38:43.834Z,61.7
2017-08-11T11:39:44.478Z,61.2
2017-08-11T11:40:45.119Z,61.3
2017-08-11T11:41:45.758Z,61.3
2017-08-11T11:42:46.549Z,61.2
2017-08-11T11:43:47.191Z,61.5
2017-08-11T11:44:47.834Z,61.3
2017-08-11T11:45:48.482Z,61.4
2017-08-11T11:46:49.122Z,61.3
2017-08-11T11:47:49.763Z,61.2
2017-08-11T11:48:50.403Z,61.7
2017-08-11T11:49:51.045Z,61.7
2017-08-11T11:50:51.686Z,61.7
2017-08-11T11:51:52.328Z,61.5
2017-08-11T11:52:52.973Z,61.7
2017-08-11T11:53:53.608Z,61.7
2017-08-11T11:54:54.249Z,61.0
2017-08-11T11:55:54.888Z,60.9
2017-08-11T11:56:55.531Z,60.9
2017-08-11T11:57:56.424Z,61.5
2017-08-11T11:58:57.163Z,61.5
2017-08-11T11:59:57.803Z,61.2
2017-08-11T12:00:58.444Z,61.7
2017-08-11T12:01:59.084Z,61.0
2017-08-11T12:02:59.724Z,60.9
2017-08-11T12:04:00.365Z,61.4
2017-08-11T12:05:01.009Z,61.1
2017-08-11T12:06:01.649Z,60.8
2017-08-11T12:07:02.290Z,60.7
2017-08-11T12:08:02.931Z,61.2
2017-08-11T12:09:03.572Z,60.6
2017-08-11T12:10:04.219Z,61.2
2017-08-11T12:11:04.857Z,61.1
2017-08-11T12:12:05.555Z,60.4
2017-08-11T12:13:06.195Z,60.1
2017-08-11T12:14:07.088Z,60.6
2017-08-11T12:15:07.730Z,60.1
2017-08-11T12:16:08.371Z,60.2
2017-08-11T12:17:09.011Z,59.7
2017-08-11T12:18:09.652Z,59.6
2017-08-11T12:19:10.294Z,59.8
2017-08-11T12:20:10.933Z,59.9
2017-08-11T12:21:11.574Z,59.6
2017-08-11T12:22:12.216Z,59.8
2017-08-11T12:23:12.858Z,59.7
2017-08-11T12:24:13.803Z,59.8
2017-08-11T12:25:14.444Z,60.1
2017-08-11T12:26:15.085Z,59.9
2017-08-11T12:27:16.078Z,59.8
2017-08-11T12:28:16.718Z,59.8
2017-08-11T12:29:17.362Z,60.0
2017-08-11T12:30:18.003Z,59.7
2017-08-11T12:31:18.647Z,59.4
2017-08-11T12:32:19.307Z,59.4
2017-08-11T12:33:19.949Z,59.4
2017-08-11T12:34:20.590Z,59.4
2017-08-11T12:35:21.231Z,59.5
2017-08-11T12:36:21.872Z,59.5
2017-08-11T12:37:22.514Z,59.4
2017-08-11T12:38:23.154Z,59.6
2017-08-11T12:39:23.797Z,59.3
2017-08-11T12:40:24.441Z,59.5
2017-08-11T12:41:25.081Z,59.5
2017-08-11T12:42:25.822Z,59.2
2017-08-11T12:43:26.464Z,59.2
2017-08-11T12:44:27.115Z,59.0
2017-08-11T12:45:27.756Z,59.1
2017-08-11T12:46:28.396Z,59.1
2017-08-11T12:47:29.038Z,58.6
2017-08-11T12:48:29.680Z,58.9
2017-08-11T12:49:30.322Z,58.7
2017-08-11T12:50:30.964Z,58.6
2017-08-11T12:51:31.858Z,58.8
2017-08-11T12:52:32.499Z,58.9
2017-08-11T12:53:33.141Z,58.4
2017-08-11T12:54:33.782Z,58.7
2017-08-11T12:55:34.422Z,58.5
2017-08-11T12:56:35.062Z,58.8
2017-08-11T12:57:35.703Z,58.4
2017-08-11T12:58:36.446Z,58.6
2017-08-11T12:59:37.085Z,58.8
2017-08-11T13:00:37.725Z,58.5
2017-08-11T13:01:38.369Z,58.6
2017-08-11T13:02:39.007Z,58.6
2017-08-11T13:03:39.648Z,58.6
2017-08-11T13:04:40.289Z,58.7
2017-08-11T13:05:40.931Z,58.6
2017-08-11T13:06:41.573Z,58.8
2017-08-11T13:07:42.214Z,58.6
2017-08-11T13:08:42.853Z,58.6
2017-08-11T13:09:43.494Z,58.6
2017-08-11T13:10:44.136Z,58.7
2017-08-11T13:11:44.778Z,58.7
2017-08-11T13:12:45.420Z,58.6
2017-08-11T13:13:46.263Z,58.8
2017-08-11T13:14:46.905Z,58.1
2017-08-11T13:15:47.545Z,58.4
2017-08-11T13:16:48.187Z,58.5
2017-08-11T13:17:48.830Z,58.1
2017-08-11T13:18:49.470Z,57.9
2017-08-11T13:19:50.111Z,57.8
2017-08-11T13:20:50.752Z,57.6
2017-08-11T13:21:51.742Z,58.2
2017-08-11T13:22:52.383Z,57.8
2017-08-11T13:23:53.324Z,57.6
2017-08-11T13:24:53.963Z,57.6
2017-08-11T13:25:54.604Z,57.7
2017-08-11T13:26:55.245Z,57.9